createdAt,value
2022-08-10T00:01:08.244Z,100917.25
2022-08-10T00:03:35.028Z,100909.53
2022-08-10T00:06:01.765Z,100909.78
2022-08-10T00:08:29.094Z,100907.59
2022-08-10T00:10:57.228Z,100901.28
2022-08-10T00:13:25.995Z,100902.88
2022-08-10T00:15:54.914Z,100905.97
2022-08-10T00:18:35.676Z,100909.41
2022-08-10T00:21:08.179Z,100914.31
2022-08-10T00:23:36.342Z,100913.81
2022-08-10T00:26:03.604Z,100907.19
2022-08-10T00:28:30.863Z,100915.91
2022-08-10T00:30:57.593Z,100906.31
2022-08-10T00:33:24.733Z,100907.66
2022-08-10T00:35:51.722Z,100909.56
2022-08-10T00:38:18.503Z,100912.88
2022-08-10T00:40:46.276Z,100912.44
2022-08-10T00:43:13.063Z,100907.38
2022-08-10T00:45:39.823Z,100912.16
2022-08-10T00:48:06.759Z,100906.66
2022-08-10T00:50:34.470Z,100909.69
2022-08-10T00:53:01.764Z,100902.66
2022-08-10T00:55:28.925Z,100904.31
2022-08-10T00:57:56.884Z,100896.81
2022-08-10T01:00:24.809Z,100913.75
2022-08-10T01:02:52.182Z,100904.78
2022-08-10T01:05:20.679Z,100907.16
2022-08-10T01:08:02.532Z,100918.81
2022-08-10T01:10:43.858Z,100912.63
2022-08-10T01:13:26.715Z,100911.03
2022-08-10T01:16:09.312Z,100915.06
2022-08-10T01:18:59.736Z,100915.78
2022-08-10T01:21:56.688Z,100922.88
2022-08-10T01:24:42.706Z,100915.72
2022-08-10T01:27:31.045Z,100916.97
2022-08-10T01:30:14.983Z,100925.69
2022-08-10T01:32:50.804Z,100919.28
2022-08-10T01:35:56.004Z,100928.13
2022-08-10T01:38:36.316Z,100929.47
2022-08-10T01:41:18.493Z,100927.88
2022-08-10T01:44:03.895Z,100932.50
2022-08-10T01:46:32.851Z,100932.06
2022-08-10T01:49:00.862Z,100946.31
2022-08-10T01:51:36.714Z,100937.50
2022-08-10T01:54:12.157Z,100943.66
2022-08-10T01:56:42.776Z,100948.44
2022-08-10T01:59:16.633Z,100941.84
2022-08-10T02:01:48.576Z,100936.16
2022-08-10T02:04:17.732Z,100939.34
2022-08-10T02:06:56.032Z,100939.78
2022-08-10T02:09:27.974Z,100946.66
2022-08-10T02:12:08.103Z,100944.94
2022-08-10T02:14:46.972Z,100941.41
2022-08-10T02:17:59.780Z,100944.81
2022-08-10T02:20:19.559Z,100948.38
2022-08-10T02:22:52.578Z,100951.41
2022-08-10T02:25:42.392Z,100948.31
2022-08-10T02:28:10.170Z,100951.56
2022-08-10T02:30:38.202Z,100950.50
2022-08-10T02:33:06.553Z,100956.28
2022-08-10T02:35:53.899Z,100952.56
2022-08-10T02:38:58.179Z,100956.22
2022-08-10T02:45:11.081Z,100955.28
2022-08-10T02:45:18.654Z,100954.06
2022-08-10T02:47:52.863Z,100955.66
2022-08-10T02:50:34.845Z,100955.87
2022-08-10T02:53:55.385Z,100959.25
2022-08-10T02:56:22.473Z,100956.38
2022-08-10T02:59:07.052Z,100962.37
2022-08-10T03:01:41.541Z,100965.03
2022-08-10T03:04:19.582Z,100959.63
2022-08-10T03:06:55.129Z,100956.78
2022-08-10T03:09:25.982Z,100965.16
2022-08-10T03:12:37.254Z,100962.56
2022-08-10T03:14:43.803Z,100972.31
2022-08-10T03:17:12.719Z,100969.03
2022-08-10T03:19:41.130Z,100982.81
2022-08-10T03:22:28.731Z,100985.16
2022-08-10T03:24:56.257Z,100982.25
2022-08-10T03:27:23.952Z,100985.59
2022-08-10T03:30:29.732Z,100984.59
2022-08-10T03:32:40.011Z,100977.28
2022-08-10T03:35:08.472Z,100979.00
2022-08-10T03:37:35.884Z,100993.94
2022-08-10T03:40:02.870Z,100987.84
2022-08-10T03:42:32.462Z,100982.37
2022-08-10T03:45:01.051Z,100982.37
2022-08-10T03:47:30.273Z,100993.19
2022-08-10T03:49:59.814Z,100993.22
2022-08-10T03:52:47.484Z,100986.16
2022-08-10T03:56:27.330Z,100998.25
2022-08-10T03:58:02.633Z,100989.91
2022-08-10T04:00:35.041Z,100992.53
2022-08-10T04:03:04.702Z,100995.81
2022-08-10T04:05:38.435Z,100998.03
2022-08-10T04:08:08.127Z,100995.59
2022-08-10T04:10:35.028Z,100995.72
2022-08-10T04:13:01.971Z,100993.44
2022-08-10T04:15:28.815Z,100998.97
2022-08-10T04:17:59.366Z,100998.53
2022-08-10T04:20:38.562Z,100994.38
2022-08-10T04:23:12.405Z,100997.50
2022-08-10T04:25:40.214Z,101002.91
2022-08-10T04:28:11.013Z,101000.72
2022-08-10T04:30:39.442Z,100999.50
2022-08-10T04:33:08.682Z,100998.31
2022-08-10T04:35:36.554Z,101001.97
2022-08-10T04:38:04.483Z,101000.63
2022-08-10T04:40:32.025Z,101001.72
2022-08-10T04:43:11.318Z,101011.16
2022-08-10T04:45:49.964Z,101003.63
2022-08-10T04:48:41.075Z,101012.84
2022-08-10T04:51:08.127Z,101005.44
2022-08-10T04:54:03.042Z,101005.88
2022-08-10T04:56:31.663Z,101007.50
2022-08-10T04:59:00.017Z,101007.28
2022-08-10T05:01:26.984Z,101003.56
2022-08-10T05:04:34.404Z,100992.78
2022-08-10T05:06:51.473Z,101003.44
2022-08-10T05:09:18.209Z,100997.81
2022-08-10T05:11:44.962Z,101005.25
2022-08-10T05:14:11.754Z,101005.72
2022-08-10T05:16:38.462Z,101001.62
2022-08-10T05:19:05.362Z,100999.31
2022-08-10T05:22:02.997Z,100994.16
2022-08-10T05:24:18.952Z,101013.63
2022-08-10T05:27:08.346Z,101006.03
2022-08-10T05:29:33.253Z,101006.47
2022-08-10T05:32:00.631Z,101011.22
2022-08-10T05:34:28.793Z,101009.41
2022-08-10T05:36:56.193Z,101003.94
2022-08-10T05:39:28.703Z,100999.00
2022-08-10T05:42:01.516Z,101005.00
2022-08-10T05:44:28.722Z,101001.41
2022-08-10T05:46:55.714Z,100996.87
2022-08-10T05:49:29.890Z,100996.69
2022-08-10T05:51:56.826Z,100988.94
2022-08-10T05:54:32.283Z,100977.19
2022-08-10T05:57:09.320Z,100988.25
2022-08-10T06:00:11.205Z,100980.03
2022-08-10T06:02:41.837Z,100978.50
2022-08-10T06:05:39.393Z,100980.13
2022-08-10T06:08:16.944Z,100977.97
2022-08-10T06:12:23.409Z,100979.31
2022-08-10T06:14:13.798Z,100981.03
2022-08-10T06:16:44.493Z,100975.41
2022-08-10T06:19:15.495Z,100983.44
2022-08-10T06:22:00.752Z,100981.09
2022-08-10T06:25:02.720Z,100983.97
2022-08-10T06:27:34.263Z,100985.38
2022-08-10T06:30:02.692Z,100987.66
2022-08-10T06:32:31.012Z,100984.75
2022-08-10T06:35:00.674Z,100990.50
2022-08-10T06:37:29.545Z,100986.19
2022-08-10T06:39:56.680Z,100993.22
2022-08-10T06:42:31.490Z,100992.31
2022-08-10T06:45:29.112Z,100982.84
2022-08-10T06:48:19.411Z,100985.31
2022-08-10T06:51:29.403Z,100991.19
2022-08-10T06:54:12.389Z,100990.84
2022-08-10T06:56:55.810Z,100990.88
2022-08-10T06:59:40.864Z,100995.50
2022-08-10T07:02:22.153Z,100993.37
2022-08-10T07:04:55.327Z,100994.59
2022-08-10T07:07:27.074Z,100985.09
2022-08-10T07:09:56.922Z,100995.88
2022-08-10T07:12:25.923Z,100995.44
2022-08-10T07:14:54.455Z,100996.44
2022-08-10T07:17:24.283Z,100987.97
2022-08-10T07:19:55.162Z,100979.13
2022-08-10T07:23:08.706Z,100976.37
2022-08-10T07:25:16.305Z,100973.34
2022-08-10T07:28:00.923Z,100975.84
2022-08-10T07:30:36.065Z,100974.28
2022-08-10T07:33:18.059Z,100973.19
2022-08-10T07:35:49.337Z,100964.19
2022-08-10T07:38:38.043Z,100964.69
2022-08-10T07:41:06.214Z,100965.47
2022-08-10T07:43:38.126Z,100968.66
2022-08-10T07:46:06.053Z,100962.94
2022-08-10T07:48:42.392Z,100965.78
2022-08-10T07:51:10.556Z,100964.12
2022-08-10T07:53:51.561Z,100976.53
2022-08-10T07:56:47.407Z,100971.69
2022-08-10T07:59:17.627Z,100976.06
2022-08-10T08:01:50.690Z,100983.84
2022-08-10T08:04:21.071Z,100981.63
2022-08-10T08:06:50.032Z,100979.47
2022-08-10T08:09:18.978Z,100982.84
2022-08-10T08:11:47.753Z,100975.56
2022-08-10T08:14:15.940Z,100977.44
2022-08-10T08:16:46.450Z,100973.00
2022-08-10T08:19:32.848Z,100972.63
2022-08-10T08:24:08.092Z,100977.47
2022-08-10T08:24:53.113Z,100976.06
2022-08-10T08:27:21.420Z,100973.47
2022-08-10T08:29:50.766Z,100973.34
2022-08-10T08:32:27.586Z,100965.44
2022-08-10T08:34:57.987Z,100973.16
2022-08-10T08:38:32.797Z,100977.19
2022-08-10T08:40:21.653Z,100969.72
2022-08-10T08:43:07.146Z,100977.50
2022-08-10T08:46:00.861Z,100971.78
2022-08-10T08:48:57.218Z,100970.13
2022-08-10T08:52:07.955Z,100956.72
2022-08-10T08:56:03.989Z,100961.66
2022-08-10T08:58:02.885Z,100962.03
2022-08-10T09:00:57.104Z,100955.63
2022-08-10T09:03:35.805Z,100958.25
2022-08-10T09:06:30.713Z,100962.31
2022-08-10T09:09:10.020Z,100954.53
2022-08-10T09:12:06.535Z,100947.66
2022-08-10T09:15:02.755Z,100946.25
2022-08-10T09:17:57.548Z,100952.53
2022-08-10T09:20:33.227Z,100944.28
2022-08-10T09:24:04.973Z,100931.09
2022-08-10T09:26:29.232Z,100933.53
2022-08-10T09:29:12.724Z,100921.16
2022-08-10T09:32:57.426Z,100935.56
2022-08-10T09:36:19.619Z,100923.16
2022-08-10T09:38:03.513Z,100926.91
2022-08-10T09:41:00.538Z,100922.69
2022-08-10T09:43:35.905Z,100923.00
2022-08-10T09:46:29.685Z,100911.63
2022-08-10T09:49:54.487Z,100916.97
2022-08-10T09:52:41.234Z,100915.63
2022-08-10T09:55:14.233Z,100908.47
2022-08-10T09:57:58.924Z,100909.25
2022-08-10T10:00:46.323Z,100897.00
2022-08-10T10:03:31.669Z,100908.88
2022-08-10T10:06:04.513Z,100909.41
2022-08-10T10:09:10.908Z,100899.41
2022-08-10T10:11:40.880Z,100885.91
2022-08-10T10:14:32.757Z,100901.97
2022-08-10T10:17:27.865Z,100900.56
2022-08-10T10:20:36.191Z,100901.81
2022-08-10T10:23:05.764Z,100894.41
2022-08-10T10:25:50.926Z,100899.13
2022-08-10T10:28:44.401Z,100894.22
2022-08-10T10:31:43.872Z,100888.75
2022-08-10T10:34:48.831Z,100881.75
2022-08-10T10:37:18.091Z,100890.00
2022-08-10T10:39:52.183Z,100878.28
2022-08-10T10:42:49.844Z,100877.31
2022-08-10T10:45:24.552Z,100878.94
2022-08-10T10:48:24.220Z,100884.28
2022-08-10T10:51:10.959Z,100885.34
2022-08-10T10:53:44.162Z,100871.41
2022-08-10T10:56:16.685Z,100879.16
2022-08-10T10:59:56.018Z,100874.78
2022-08-10T11:02:20.271Z,100874.50
2022-08-10T11:05:01.858Z,100865.78
2022-08-10T11:07:40.368Z,100865.56
2022-08-10T11:10:33.047Z,100861.25
2022-08-10T11:14:27.428Z,100861.09
2022-08-10T11:16:05.904Z,100855.66
2022-08-10T11:18:34.036Z,100865.94
2022-08-10T11:21:24.666Z,100864.44
2022-08-10T11:24:48.270Z,100868.06
2022-08-10T11:27:06.278Z,100864.91
2022-08-10T11:29:49.830Z,100869.16
2022-08-10T11:32:45.883Z,100863.00
2022-08-10T11:35:26.254Z,100866.25
2022-08-10T11:38:30.961Z,100865.13
2022-08-10T11:42:05.453Z,100853.63
2022-08-10T11:44:09.393Z,100860.00
2022-08-10T11:46:42.918Z,100855.88
2022-08-10T11:49:22.911Z,100863.25
2022-08-10T11:51:57.744Z,100852.25
2022-08-10T11:54:51.710Z,100859.56
2022-08-10T11:57:19.422Z,100855.28
2022-08-10T11:59:58.326Z,100855.25
2022-08-10T12:02:34.471Z,100851.72
2022-08-10T12:05:23.878Z,100852.56
2022-08-10T12:10:02.909Z,100853.81
2022-08-10T12:10:59.311Z,100846.22
2022-08-10T12:13:31.407Z,100835.75
2022-08-10T12:16:08.218Z,100838.72
2022-08-10T12:18:53.215Z,100840.97
2022-08-10T12:21:27.915Z,100842.97
2022-08-10T12:24:05.624Z,100833.72
2022-08-10T12:26:38.412Z,100839.06
2022-08-10T12:29:22.408Z,100825.75
2022-08-10T12:32:07.188Z,100829.41
2022-08-10T12:34:56.901Z,100830.56
2022-08-10T12:38:02.802Z,100824.22
2022-08-10T12:40:37.407Z,100812.81
2022-08-10T12:44:07.365Z,100800.19
2022-08-10T12:46:35.303Z,100802.75
2022-08-10T12:49:20.121Z,100808.25
2022-08-10T12:51:59.673Z,100804.44
2022-08-10T12:54:32.352Z,100801.72
2022-08-10T12:57:03.692Z,100800.66
2022-08-10T12:59:32.393Z,100802.41
2022-08-10T13:02:07.638Z,100797.69
2022-08-10T13:04:40.591Z,100795.38
2022-08-10T13:07:10.267Z,100793.75
2022-08-10T13:10:07.851Z,100794.97
2022-08-10T13:12:40.574Z,100792.41
2022-08-10T13:15:49.356Z,100785.00
2022-08-10T13:18:19.676Z,100784.81
2022-08-10T13:20:53.583Z,100773.56
2022-08-10T13:23:26.361Z,100774.59
2022-08-10T13:25:57.117Z,100772.53
2022-08-10T13:28:43.195Z,100776.31
2022-08-10T13:32:03.827Z,100778.88
2022-08-10T13:34:43.393Z,100768.59
2022-08-10T13:37:14.167Z,100767.91
2022-08-10T13:39:57.721Z,100718.72
2022-08-10T13:42:34.458Z,100770.16
2022-08-10T13:45:09.463Z,100768.81
2022-08-10T13:47:48.020Z,100762.06
2022-08-10T13:50:33.472Z,100762.81
2022-08-10T13:53:13.267Z,100759.00
2022-08-10T13:55:53.238Z,100763.78
2022-08-10T13:58:40.843Z,100753.41
2022-08-10T14:01:17.477Z,100753.28
2022-08-10T14:03:46.094Z,100750.13
2022-08-10T14:06:18.063Z,100740.53
2022-08-10T14:08:51.824Z,100762.59
2022-08-10T14:11:20.554Z,100759.59
2022-08-10T14:14:05.533Z,100750.84
2022-08-10T14:16:33.482Z,100754.00
2022-08-10T14:19:04.183Z,100752.66
2022-08-10T14:21:31.441Z,100743.50
2022-08-10T14:23:58.473Z,100746.97
2022-08-10T14:26:29.173Z,100739.63
2022-08-10T14:29:06.835Z,100737.09
2022-08-10T14:31:36.492Z,100743.62
2022-08-10T14:34:09.081Z,100734.59
2022-08-10T14:36:56.485Z,100739.84
2022-08-10T14:39:31.410Z,100741.66
2022-08-10T14:42:11.059Z,100743.62
2022-08-10T14:44:54.373Z,100727.25
2022-08-10T14:47:51.660Z,100736.88
2022-08-10T14:50:31.503Z,100738.97
2022-08-10T14:53:26.786Z,100734.22
2022-08-10T14:56:00.615Z,100734.44
2022-08-10T14:58:59.408Z,100730.34
2022-08-10T15:02:37.909Z,100731.63
2022-08-10T15:04:24.868Z,100717.91
2022-08-10T15:06:57.143Z,100712.94
2022-08-10T15:09:28.324Z,100714.75
2022-08-10T15:12:21.803Z,100708.13
2022-08-10T15:14:58.172Z,100710.12
2022-08-10T15:17:36.853Z,100711.19
2022-08-10T15:20:25.094Z,100717.53
2022-08-10T15:22:53.743Z,100713.56
2022-08-10T15:25:26.156Z,100711.19
2022-08-10T15:28:05.498Z,100713.88
2022-08-10T15:30:40.594Z,100712.75
2022-08-10T15:34:03.358Z,100720.53
2022-08-10T15:36:38.223Z,100708.00
2022-08-10T15:40:22.082Z,100713.88
2022-08-10T15:42:11.424Z,100716.81
2022-08-10T15:44:41.183Z,100714.97
2022-08-10T15:47:45.027Z,100701.13
2022-08-10T15:50:16.055Z,100709.34
2022-08-10T15:53:02.150Z,100702.84
2022-08-10T15:55:43.335Z,100701.87
2022-08-10T15:58:38.734Z,100694.94
2022-08-10T16:02:14.007Z,100698.16
2022-08-10T16:04:19.382Z,100703.75
2022-08-10T16:06:55.844Z,100703.09
2022-08-10T16:10:10.793Z,100693.78
2022-08-10T16:12:29.733Z,100695.19
2022-08-10T16:15:00.102Z,100700.91
2022-08-10T16:17:28.375Z,100698.13
2022-08-10T16:19:59.231Z,100687.66
2022-08-10T16:22:36.319Z,100687.19
2022-08-10T16:25:12.387Z,100687.81
2022-08-10T16:27:41.392Z,100686.31
2022-08-10T16:30:08.502Z,100687.66
2022-08-10T16:32:36.430Z,100691.44
2022-08-10T16:35:09.230Z,100692.56
2022-08-10T16:37:56.661Z,100684.03
2022-08-10T16:40:29.333Z,100684.53
2022-08-10T16:42:58.875Z,100692.94
2022-08-10T16:45:43.584Z,100693.63
2022-08-10T16:48:11.345Z,100691.56
2022-08-10T16:50:45.424Z,100691.41
2022-08-10T16:53:15.976Z,100700.28
2022-08-10T16:55:52.693Z,100696.53
2022-08-10T16:58:25.654Z,100696.88
2022-08-10T17:00:57.792Z,100697.66
2022-08-10T17:04:07.891Z,100705.50
2022-08-10T17:06:28.076Z,100697.53
2022-08-10T17:08:58.594Z,100702.97
2022-08-10T17:11:30.778Z,100697.72
2022-08-10T17:14:00.225Z,100694.84
2022-08-10T17:16:36.902Z,100706.03
2022-08-10T17:19:11.972Z,100701.16
2022-08-10T17:21:51.419Z,100699.69
2022-08-10T17:24:23.098Z,100699.62
2022-08-10T17:26:51.271Z,100693.34
2022-08-10T17:29:58.446Z,100687.00
2022-08-10T17:32:24.293Z,100700.28
2022-08-10T17:34:57.982Z,100700.88
2022-08-10T17:37:27.383Z,100702.59
2022-08-10T17:40:03.635Z,100704.87
2022-08-10T17:42:31.585Z,100704.69
2022-08-10T17:44:59.323Z,100706.31
2022-08-10T17:47:27.780Z,100701.63
2022-08-10T17:50:01.267Z,100702.97
2022-08-10T17:52:31.914Z,100709.91
2022-08-10T17:55:05.384Z,100707.28
2022-08-10T17:57:38.010Z,100705.50
2022-08-10T18:00:08.543Z,100698.34
2022-08-10T18:02:39.249Z,100699.59
2022-08-10T18:05:09.382Z,100704.13
2022-08-10T18:07:39.277Z,100701.44
2022-08-10T18:10:11.109Z,100705.25
2022-08-10T18:12:50.135Z,100698.47
2022-08-10T18:15:22.207Z,100698.81
2022-08-10T18:17:56.960Z,100704.50
2022-08-10T18:20:33.821Z,100710.03
2022-08-10T18:23:01.667Z,100719.22
2022-08-10T18:25:33.673Z,100717.44
2022-08-10T18:28:03.816Z,100715.97
2022-08-10T18:30:36.409Z,100725.75
2022-08-10T18:33:08.485Z,100726.16
2022-08-10T18:35:35.985Z,100724.16
2022-08-10T18:38:04.064Z,100719.84
2022-08-10T18:40:35.687Z,100738.97
2022-08-10T18:44:02.896Z,100732.88
2022-08-10T18:45:57.222Z,100733.81
2022-08-10T18:48:33.401Z,100743.75
2022-08-10T18:51:05.950Z,100745.34
2022-08-10T18:53:38.582Z,100751.41
2022-08-10T18:56:20.695Z,100756.69
2022-08-10T18:58:50.623Z,100761.28
2022-08-10T19:01:34.459Z,100762.59
2022-08-10T19:04:18.303Z,100768.50
2022-08-10T19:07:22.181Z,100770.03
2022-08-10T19:10:01.004Z,100769.34
2022-08-10T19:12:42.864Z,100772.59
2022-08-10T19:15:57.486Z,100773.66
2022-08-10T19:18:48.631Z,100777.03
2022-08-10T19:21:30.994Z,100785.87
2022-08-10T19:24:15.165Z,100778.09
2022-08-10T19:26:49.384Z,100776.81
2022-08-10T19:30:10.182Z,100774.22
2022-08-10T19:32:52.624Z,100780.06
2022-08-10T19:35:22.513Z,100785.72
2022-08-10T19:38:04.004Z,100776.00
2022-08-10T19:40:43.477Z,100772.97
2022-08-10T19:44:00.883Z,100779.13
2022-08-10T19:46:40.113Z,100770.31
2022-08-10T19:49:44.383Z,100782.28
2022-08-10T19:52:29.445Z,100784.59
2022-08-10T19:55:05.658Z,100777.78
2022-08-10T19:57:44.424Z,100782.81
2022-08-10T20:00:22.836Z,100785.22
2022-08-10T20:03:10.623Z,100782.09
2022-08-10T20:06:12.989Z,100778.53
2022-08-10T20:09:06.885Z,100786.47
2022-08-10T20:11:49.616Z,100788.78
2022-08-10T20:14:38.205Z,100780.31
2022-08-10T20:17:09.986Z,100782.22
2022-08-10T20:19:53.238Z,100783.41
2022-08-10T20:22:28.764Z,100785.78
2022-08-10T20:25:35.525Z,100783.34
2022-08-10T20:28:05.286Z,100782.72
2022-08-10T20:30:45.133Z,100795.97
2022-08-10T20:33:39.485Z,100796.16
2022-08-10T20:36:40.181Z,100805.47
2022-08-10T20:39:27.899Z,100806.37
2022-08-10T20:41:54.680Z,100801.16
2022-08-10T20:44:40.045Z,100802.19
2022-08-10T20:47:22.026Z,100794.31
2022-08-10T20:50:00.823Z,100801.88
2022-08-10T20:52:29.968Z,100798.09
2022-08-10T20:55:04.504Z,100801.62
2022-08-10T20:57:58.224Z,100805.06
2022-08-10T21:00:35.315Z,100806.37
2022-08-10T21:03:25.157Z,100802.50
2022-08-10T21:06:42.064Z,100809.66
2022-08-10T21:09:28.392Z,100800.75
2022-08-10T21:12:16.849Z,100802.81
2022-08-10T21:15:09.695Z,100800.56
2022-08-10T21:17:58.276Z,100799.78
2022-08-10T21:20:54.287Z,100808.03
2022-08-10T21:23:30.582Z,100807.78
2022-08-10T21:26:19.527Z,100807.22
2022-08-10T21:29:37.871Z,100802.66
2022-08-10T21:32:13.992Z,100802.87
2022-08-10T21:38:26.439Z,100817.06
2022-08-10T21:41:17.776Z,100819.19
2022-08-10T21:44:01.985Z,100821.69
2022-08-10T21:46:54.864Z,100822.53
2022-08-10T21:50:25.508Z,100831.03
2022-08-10T21:53:45.095Z,100816.69
2022-08-10T21:56:56.585Z,100810.47
2022-08-10T22:00:36.271Z,100822.75
2022-08-10T22:03:23.766Z,100820.25
2022-08-10T22:06:12.494Z,100819.47
2022-08-10T22:09:09.080Z,100820.97
2022-08-10T22:12:01.232Z,100818.75
2022-08-10T22:14:55.846Z,100824.75
2022-08-10T22:18:01.122Z,100818.28
2022-08-10T22:20:53.115Z,100813.88
2022-08-10T22:23:41.166Z,100822.84
2022-08-10T22:26:33.171Z,100824.63
2022-08-10T22:29:42.383Z,100818.06
2022-08-10T22:31:24.933Z,100815.22
2022-08-10T22:32:40.920Z,100817.94
2022-08-10T22:35:54.412Z,100820.63
2022-08-10T22:38:45.763Z,100819.94
2022-08-10T22:41:53.155Z,100819.22
2022-08-10T22:44:40.434Z,100814.16
2022-08-10T22:47:30.525Z,100817.25
2022-08-10T22:50:03.350Z,100820.63
2022-08-10T22:53:01.665Z,100818.50
2022-08-10T22:55:52.994Z,100820.06
2022-08-10T22:58:39.163Z,100818.00
2022-08-10T23:02:08.093Z,100814.16
2022-08-10T23:04:35.963Z,100816.37
2022-08-10T23:07:18.369Z,100811.41
2022-08-10T23:09:49.152Z,100815.12
2022-08-10T23:12:25.759Z,100813.75
2022-08-10T23:15:13.383Z,100819.66
2022-08-10T23:18:02.500Z,100823.41
2022-08-10T23:20:30.499Z,100827.56
2022-08-10T23:23:06.028Z,100822.16
2022-08-10T23:25:56.117Z,100819.97
2022-08-10T23:28:39.207Z,100821.56
2022-08-10T23:31:14.733Z,100832.09
2022-08-10T23:33:44.782Z,100831.81
2022-08-10T23:36:34.321Z,100831.91
2022-08-10T23:39:24.058Z,100832.16
2022-08-10T23:41:58.295Z,100832.72
2022-08-10T23:44:37.373Z,100832.50
2022-08-10T23:47:05.426Z,100822.56
2022-08-10T23:49:36.732Z,100831.38
2022-08-10T23:52:33.120Z,100832.19
2022-08-10T23:55:04.951Z,100817.53
2022-08-10T23:57:35.351Z,100825.53
